Time;durP1;ratioP1;P1;durP2;ratioP2;P2;SDS_P1;SDS_P2;PMS_P1;PMS_P2;Temp;Humidity;BMP_temperature;BMP_pressure;BME280_temperature;BME280_humidity;BME280_pressure;Samples;Min_cycle;Max_cycle;Signal;HPM_P1;HPM_P2
2022/12/19 00:00:34;;;;;;;41.27;20.00;;;-1.60;98.40;;;2.48;50.85;98531.09;5040673;28;20042;-58
2022/12/19 00:03:02;;;;;;;40.30;17.90;;;-1.50;98.70;;;2.48;51.47;98523.22;5041494;28;20041;-59
2022/12/19 00:05:30;;;;;;;41.60;18.40;;;-1.50;97.20;;;2.50;51.11;98516.09;5041620;28;20037;-58
2022/12/19 00:07:58;;;;;;;35.47;17.67;;;-1.50;98.50;;;2.50;50.94;98507.31;5045288;28;20041;-58
2022/12/19 00:10:34;;;;;;;34.63;17.77;;;-1.50;98.70;;;2.50;51.00;98509.97;5043852;28;20047;-59
2022/12/19 00:13:02;;;;;;;40.23;19.70;;;-1.50;99.00;;;2.53;51.05;98509.78;5045422;28;20230;-58
2022/12/19 00:15:32;;;;;;;40.60;18.90;;;-1.40;99.50;;;2.55;51.64;98497.41;5044513;28;20359;-59
2022/12/19 00:18:00;;;;;;;41.03;18.83;;;-1.40;99.50;;;2.56;51.54;98499.13;5045333;28;20038;-59
2022/12/19 00:20:28;;;;;;;47.67;23.67;;;-1.40;99.10;;;2.56;51.67;98493.84;5045295;28;20049;-58
2022/12/19 00:22:57;;;;;;;41.40;24.30;;;-1.30;99.10;;;2.56;51.60;98480.72;5043777;28;20052;-59
2022/12/19 00:25:24;;;;;;;41.33;22.47;;;-1.30;98.70;;;2.59;51.54;98488.41;5044297;28;20041;-59
2022/12/19 00:27:52;;;;;;;39.73;18.37;;;-1.30;98.60;;;2.60;51.22;98492.72;5044324;28;20369;-59
2022/12/19 00:30:20;;;;;;;45.50;21.80;;;-1.30;98.60;;;2.62;51.36;98497.88;5027754;28;20064;-58
2022/12/19 00:32:48;;;;;;;39.37;21.27;;;-1.30;99.10;;;2.64;51.39;98488.13;5045039;28;20356;-59
2022/12/19 00:35:16;;;;;;;37.63;21.03;;;-1.30;99.50;;;2.64;51.37;98485.50;5044011;28;20061;-59
2022/12/19 00:37:44;;;;;;;39.30;19.90;;;-1.30;99.30;;;2.65;51.13;98489.81;5043861;28;20336;-59
2022/12/19 00:40:16;;;;;;;36.00;17.33;;;-1.30;99.50;;;2.66;51.09;98473.13;5045356;28;20373;-59
2022/12/19 00:42:44;;;;;;;38.17;18.33;;;-1.30;99.10;;;2.66;51.60;98481.00;5044880;28;20037;-59
2022/12/19 00:45:20;;;;;;;29.30;16.77;;;-1.30;99.30;;;2.65;51.34;98479.31;5044005;28;20051;-59
2022/12/19 00:47:48;;;;;;;39.37;17.90;;;-1.30;99.70;;;2.68;51.69;98479.97;5044844;28;20506;-59
2022/12/19 00:50:16;;;;;;;38.90;18.67;;;-1.30;99.80;;;2.71;51.47;98481.56;5051746;28;20053;-59
2022/12/19 00:52:44;;;;;;;35.37;17.97;;;-1.30;99.90;;;2.71;51.27;98471.03;5043190;28;20049;-59
2022/12/19 00:55:12;;;;;;;36.13;17.80;;;-1.20;99.50;;;2.66;51.90;98475.75;5044785;28;20049;-59
2022/12/19 00:57:46;;;;;;;37.08;17.48;;;-1.10;98.70;;;2.67;51.04;98465.13;5043614;28;20344;-58
2022/12/19 01:00:15;;;;;;;34.43;16.43;;;-1.00;98.50;;;2.72;51.33;98468.31;5044505;28;20045;-59
2022/12/19 01:02:44;;;;;;;38.47;19.37;;;-1.00;98.00;;;2.73;51.29;98459.50;5044490;28;20044;-58
2022/12/19 01:05:11;;;;;;;39.73;19.90;;;-1.00;97.50;;;2.74;51.53;98466.44;5044813;28;20045;-57
2022/12/19 01:07:41;;;;;;;36.10;17.67;;;-1.00;97.00;;;2.76;51.58;98456.69;5045273;28;20049;-59
2022/12/19 01:10:09;;;;;;;39.63;17.03;;;-1.00;97.40;;;2.78;51.37;98458.38;5042670;28;20252;-59
2022/12/19 01:12:55;;;;;;;35.00;18.90;;;-1.00;97.60;;;2.79;51.46;98450.38;5042899;28;20049;-59
2022/12/19 01:15:22;;;;;;;37.50;17.13;;;-1.00;97.70;;;2.79;51.22;98441.66;5043499;28;20247;-59
2022/12/19 01:17:50;;;;;;;36.77;17.47;;;-1.10;98.50;;;2.82;51.36;98452.00;5038113;28;20037;-57
2022/12/19 01:20:20;;;;;;;34.90;17.73;;;-1.00;98.50;;;2.83;51.36;98449.28;5042897;28;20049;-59
2022/12/19 01:22:58;;;;;;;36.03;17.73;;;-1.00;98.70;;;2.86;51.22;98450.88;5044172;28;20044;-60
2022/12/19 01:25:27;;;;;;;36.70;17.27;;;-1.00;98.40;;;2.85;51.38;98446.53;5043076;28;20265;-58
2022/12/19 01:27:56;;;;;;;37.67;18.13;;;-1.00;98.20;;;2.83;51.23;98451.91;5043535;28;20236;-59
2022/12/19 01:30:24;;;;;;;39.83;17.50;;;-1.00;98.70;;;2.84;51.22;98442.22;5043060;28;20045;-59
2022/12/19 01:32:52;;;;;;;38.27;18.37;;;-1.00;97.90;;;2.84;51.32;98443.06;5027331;28;20053;-59
2022/12/19 01:35:21;;;;;;;35.63;16.83;;;-1.00;98.40;;;2.89;51.40;98453.31;5043961;28;20351;-57
2022/12/19 01:37:53;;;;;;;38.97;18.10;;;-1.00;98.60;;;2.90;51.43;98453.22;5026532;28;20042;-59
2022/12/19 01:40:35;;;;;;;32.60;17.63;;;-1.00;98.70;;;2.91;51.53;98443.56;5043115;28;20053;-59
2022/12/19 01:43:03;;;;;;;37.30;17.23;;;-1.00;98.70;;;2.95;51.10;98431.91;5043740;28;20051;-58
2022/12/19 01:45:33;;;;;;;35.73;17.70;;;-1.00;98.70;;;2.93;51.18;98433.78;5044408;28;20048;-59
2022/12/19 01:48:17;;;;;;;35.50;16.00;;;-1.00;98.70;;;2.89;51.20;98427.00;5027419;28;20059;-59
2022/12/19 01:51:10;;;;;;;33.53;15.60;;;-1.00;98.80;;;2.90;51.53;98412.94;5018991;28;20352;-59
2022/12/19 01:53:47;;;;;;;34.80;16.20;;;-1.00;99.00;;;2.92;51.78;98418.94;5042967;28;20045;-59
2022/12/19 01:56:27;;;;;;;35.67;16.87;;;-1.00;99.10;;;2.93;51.47;98415.38;5042673;28;20042;-59
2022/12/19 01:59:01;;;;;;;35.40;17.87;;;-1.00;99.20;;;2.93;51.32;98410.13;5026432;28;20045;-59
2022/12/19 02:01:39;;;;;;;30.87;16.73;;;-0.90;99.60;;;2.94;51.75;98399.47;5026655;28;20060;-58
2022/12/19 02:04:19;;;;;;;36.00;16.60;;;-0.90;99.70;;;2.95;51.63;98395.91;5042607;28;20053;-59
2022/12/19 02:06:48;;;;;;;41.57;19.13;;;-0.90;99.90;;;2.95;51.95;98401.19;5023808;28;20060;-59
2022/12/19 02:09:17;;;;;;;35.73;17.67;;;-0.90;99.90;;;3.01;51.83;98391.22;5050050;28;20057;-59
2022/12/19 02:11:45;;;;;;;35.37;18.13;;;-0.90;99.90;;;3.04;51.72;98388.38;5026744;28;20059;-59
2022/12/19 02:14:12;;;;;;;35.53;17.60;;;-0.80;99.90;;;3.04;51.51;98399.75;5043421;28;20060;-59
2022/12/19 02:17:19;;;;;;;36.33;17.53;;;-0.80;99.90;;;3.00;51.95;98392.16;5043813;28;20060;-58
2022/12/19 02:20:44;;;;;;;29.60;16.90;;;-0.80;99.90;;;3.01;51.67;98393.88;5027612;28;20059;-59
2022/12/19 02:23:53;;;;;;;36.10;17.23;;;-0.80;99.90;;;3.05;51.76;98385.66;5038395;28;20368;-59
2022/12/19 02:26:47;;;;;;;36.17;17.67;;;-0.70;99.90;;;3.10;51.69;98383.59;5039653;28;20049;-58
2022/12/19 02:29:42;;;;;;;34.00;17.87;;;-0.70;99.90;;;3.06;51.68;98361.03;5042441;28;20041;-54
2022/12/19 02:32:30;;;;;;;34.77;17.53;;;-0.80;99.90;;;3.05;51.85;98358.53;5038962;28;20049;-56
2022/12/19 02:35:32;;;;;;;37.30;16.97;;;-0.80;99.90;;;3.03;51.91;98363.88;5021957;28;20045;-55
2022/12/19 02:38:34;;;;;;;36.67;19.20;;;-0.80;99.90;;;3.05;52.18;98376.94;5036177;28;20052;-56
2022/12/19 02:41:27;;;;;;;38.20;18.07;;;-0.70;99.90;;;3.09;52.08;98374.00;5037421;28;20042;-53
2022/12/19 02:43:58;;;;;;;38.30;18.70;;;-0.60;99.90;;;3.18;52.40;98398.03;5020535;28;20370;-55
2022/12/19 02:46:29;;;;;;;37.40;17.47;;;-0.60;99.90;;;3.22;51.98;98413.56;5025835;28;20049;-55
2022/12/19 02:48:58;;;;;;;33.53;16.60;;;-0.50;99.90;;;3.25;52.11;98418.63;5025179;28;20059;-52
2022/12/19 02:51:25;;;;;;;33.60;17.27;;;-0.50;99.90;;;3.29;51.91;98393.78;5033072;28;20059;-53
2022/12/19 02:53:53;;;;;;;40.43;17.63;;;-0.50;99.90;;;3.29;52.03;98387.69;5041829;28;20053;-55
2022/12/19 02:56:53;;;;;;;36.80;18.93;;;-0.50;99.90;;;3.25;52.36;98376.50;5025603;28;20049;-54
2022/12/19 02:59:42;;;;;;;36.23;17.50;;;-0.40;99.90;;;3.34;52.22;98375.94;5025548;28;20049;-53
2022/12/19 03:02:58;;;;;;;34.93;16.37;;;-0.40;99.90;;;3.28;52.48;98372.84;5042231;28;20048;-55
2022/12/19 03:05:49;;;;;;;31.10;15.67;;;-0.30;99.90;;;3.39;52.20;98390.59;5040295;28;20045;-53
2022/12/19 03:08:36;;;;;;;40.80;18.87;;;-0.30;99.90;;;3.46;52.18;98392.72;5042481;28;20394;-56
2022/12/19 03:11:10;;;;;;;38.93;16.77;;;-0.20;99.90;;;3.52;52.03;98394.13;5021689;28;20063;-53
2022/12/19 03:13:57;;;;;;;39.33;18.57;;;-0.10;99.90;;;3.53;52.33;98380.88;5025983;28;20045;-54
2022/12/19 03:16:25;;;;;;;33.77;16.90;;;-0.10;99.90;;;3.62;52.42;98386.47;5041045;28;20086;-54
2022/12/19 03:18:55;;;;;;;33.83;15.50;;;-0.10;99.90;;;3.65;52.20;98391.56;5024790;28;20049;-53
2022/12/19 03:21:33;;;;;;;33.33;17.30;;;-0.10;99.90;;;3.67;52.21;98397.56;5040412;28;20052;-55
2022/12/19 03:24:02;;;;;;;38.23;17.50;;;-0.10;99.90;;;3.69;51.92;98393.88;5041297;28;20049;-56
2022/12/19 03:26:36;;;;;;;31.63;17.67;;;-0.10;99.90;;;3.73;52.01;98405.06;5041150;28;20045;-54
2022/12/19 03:29:16;;;;;;;36.63;17.73;;;0.00;99.90;;;3.72;52.33;98396.31;5040983;28;20072;-53
2022/12/19 03:31:45;;;;;;;43.13;19.13;;;0.00;99.90;;;3.77;52.06;98392.53;5040658;28;20351;-56
2022/12/19 03:34:31;;;;;;;37.40;18.63;;;0.00;99.90;;;3.77;51.90;98398.66;5040905;28;20240;-54
2022/12/19 03:37:04;;;;;;;38.87;18.07;;;0.00;99.90;;;3.79;52.50;98406.47;5035675;28;20041;-54
2022/12/19 03:39:33;;;;;;;35.10;16.77;;;0.00;99.90;;;3.79;52.51;98402.03;5040618;28;20246;-56
2022/12/19 03:44:50;;;;;;;34.80;18.07;;;0.00;99.90;;;3.85;52.54;98392.88;5033756;28;20244;-56
2022/12/19 03:47:26;;;;;;;37.40;18.67;;;0.10;99.90;;;3.87;52.51;98378.66;5041637;28;20067;-55
2022/12/19 03:49:54;;;;;;;34.17;17.27;;;0.10;99.90;;;3.91;52.45;98382.78;5025125;28;20081;-54
2022/12/19 03:52:37;;;;;;;32.63;16.17;;;0.20;99.90;;;3.93;52.48;98383.50;5039575;28;20060;-55
2022/12/19 03:55:22;;;;;;;33.07;16.87;;;0.30;99.90;;;4.01;52.61;98388.28;5041767;28;20050;-55
2022/12/19 03:58:11;;;;;;;36.17;16.67;;;0.30;99.90;;;4.03;52.85;98375.88;5032880;28;20055;-55
2022/12/19 04:00:46;;;;;;;30.20;15.23;;;0.30;99.90;;;4.10;52.77;98381.56;5040726;28;20052;-56
2022/12/19 04:03:17;;;;;;;28.70;14.43;;;0.40;99.90;;;4.13;53.26;98384.00;5040332;28;20056;-55
2022/12/19 04:05:47;;;;;;;26.87;13.07;;;0.60;99.90;;;4.19;53.04;98383.59;5040649;28;20051;-57
2022/12/19 04:08:15;;;;;;;27.37;14.33;;;0.60;99.90;;;4.25;53.12;98379.69;5040712;28;20348;-55
2022/12/19 04:10:56;;;;;;;32.23;15.50;;;0.70;99.90;;;4.32;53.08;98394.13;5039447;28;20049;-56
2022/12/19 04:13:40;;;;;;;26.60;12.20;;;0.80;99.90;;;4.38;53.18;98392.88;5039402;28;20079;-53
2022/12/19 04:16:16;;;;;;;27.27;12.85;;;0.90;99.90;;;4.46;53.49;98401.97;5040714;28;20348;-59
2022/12/19 04:18:58;;;;;;;26.77;12.57;;;1.00;99.90;;;4.48;53.20;98400.06;5041335;28;20043;-60
2022/12/19 04:21:33;;;;;;;25.63;12.13;;;1.10;99.90;;;4.53;53.25;98394.47;5039973;28;20042;-59
2022/12/19 04:24:13;;;;;;;26.40;13.23;;;1.20;99.90;;;4.57;53.82;98395.94;5024513;28;20053;-59
2022/12/19 04:26:45;;;;;;;30.60;13.70;;;1.30;99.90;;;4.65;53.34;98398.91;5040196;28;20045;-60
2022/12/19 04:29:15;;;;;;;20.80;11.27;;;1.30;99.90;;;4.72;52.96;98397.53;5041130;28;20245;-61
2022/12/19 04:31:44;;;;;;;24.07;11.63;;;1.30;99.90;;;4.74;53.94;98400.06;5040983;28;20049;-59
2022/12/19 04:34:13;;;;;;;25.23;11.87;;;1.40;99.90;;;4.79;53.43;98394.47;5040278;28;20360;-60
2022/12/19 04:36:40;;;;;;;25.00;12.53;;;1.40;99.90;;;4.82;53.38;98384.53;5039957;28;20244;-60
2022/12/19 04:39:08;;;;;;;28.93;13.43;;;1.50;99.90;;;4.85;53.45;98389.63;5032049;28;20244;-60
2022/12/19 04:41:36;;;;;;;26.57;12.97;;;1.60;99.90;;;4.90;52.99;98398.06;5040739;28;20252;-60
2022/12/19 04:44:04;;;;;;;27.40;12.70;;;1.60;99.90;;;4.95;52.83;98396.91;5041455;28;20369;-59
2022/12/19 04:46:32;;;;;;;25.93;12.40;;;1.60;99.90;;;4.98;52.96;98392.22;5041576;28;20049;-59
2022/12/19 04:49:00;;;;;;;22.23;11.53;;;1.60;99.90;;;5.03;52.82;98397.19;5040301;28;20052;-60
2022/12/19 04:51:28;;;;;;;22.83;11.53;;;1.60;99.90;;;5.04;53.49;98389.19;5040836;28;20063;-60
2022/12/19 04:53:56;;;;;;;23.57;11.97;;;1.60;99.90;;;5.06;53.26;98391.69;5043403;28;20054;-60
2022/12/19 04:56:24;;;;;;;24.23;11.83;;;1.70;99.90;;;5.08;53.09;98395.09;5043522;28;20053;-59
2022/12/19 04:58:59;;;;;;;23.77;13.13;;;1.70;99.90;;;5.07;53.92;98396.84;5044948;28;20046;-60
2022/12/19 05:01:27;;;;;;;24.90;12.87;;;1.70;99.90;;;5.10;53.46;98391.38;5044250;28;20052;-60
2022/12/19 05:03:55;;;;;;;22.63;11.63;;;1.70;99.90;;;5.12;53.66;98384.19;5043590;28;20052;-60
2022/12/19 05:06:31;;;;;;;25.10;12.43;;;1.80;99.90;;;5.16;53.54;98379.53;5042604;28;20348;-60
2022/12/19 05:08:58;;;;;;;24.10;12.37;;;1.80;99.90;;;5.20;53.82;98374.91;5042000;28;20045;-60
2022/12/19 05:11:26;;;;;;;21.60;11.87;;;1.90;99.90;;;5.23;53.66;98372.00;5044023;28;20371;-61
2022/12/19 05:13:54;;;;;;;22.23;11.67;;;1.90;99.90;;;5.25;53.34;98373.63;5044598;28;20043;-59
2022/12/19 05:16:22;;;;;;;18.87;10.70;;;1.90;99.90;;;5.24;54.27;98371.06;5044614;28;20051;-59
2022/12/19 05:18:51;;;;;;;37.10;19.40;;;1.90;99.90;;;5.26;53.88;98370.00;5044852;28;20349;-59
2022/12/19 05:21:21;;;;;;;47.30;25.53;;;2.00;99.90;;;5.27;53.88;98368.19;5044103;28;20229;-59
2022/12/19 05:23:50;;;;;;;58.90;32.37;;;2.00;99.90;;;5.31;54.07;98367.03;5044537;28;20075;-60
2022/12/19 05:26:18;;;;;;;29.10;16.10;;;2.00;99.90;;;5.31;54.56;98373.16;5043403;28;20045;-60
2022/12/19 05:28:46;;;;;;;28.97;13.93;;;2.10;99.90;;;5.35;54.31;98367.66;5044262;28;20045;-59
2022/12/19 05:31:18;;;;;;;22.60;13.37;;;2.10;99.90;;;5.35;54.16;98367.66;5044193;28;20232;-60
2022/12/19 05:33:47;;;;;;;23.43;13.87;;;2.00;99.90;;;5.38;53.96;98362.16;5043205;28;20260;-60
2022/12/19 05:36:16;;;;;;;27.23;13.67;;;2.00;99.90;;;5.39;54.36;98358.53;5043204;28;20041;-60
2022/12/19 05:38:44;;;;;;;24.87;13.73;;;2.00;99.90;;;5.40;53.87;98358.44;5042781;28;20045;-59
2022/12/19 05:41:15;;;;;;;27.77;13.20;;;2.10;99.90;;;5.41;54.45;98364.56;5043849;28;20042;-60
2022/12/19 05:43:48;;;;;;;23.17;13.00;;;2.10;99.90;;;5.42;53.90;98360.97;5043014;28;20048;-60
2022/12/19 05:46:16;;;;;;;25.37;12.40;;;2.10;99.90;;;5.44;54.01;98359.91;5042879;28;20046;-60
2022/12/19 05:48:44;;;;;;;22.67;12.43;;;2.10;99.90;;;5.44;54.47;98367.81;5043998;28;20041;-59
2022/12/19 05:51:13;;;;;;;29.90;14.70;;;2.20;99.90;;;5.48;54.19;98357.88;5042590;28;20045;-60
2022/12/19 05:53:42;;;;;;;23.97;12.17;;;2.20;99.90;;;5.49;54.79;98362.22;5043766;28;20055;-60
2022/12/19 05:56:13;;;;;;;23.17;12.57;;;2.30;99.90;;;5.52;55.11;98354.06;5043946;28;20060;-59
2022/12/19 05:58:42;;;;;;;23.83;12.30;;;2.30;99.90;;;5.55;54.86;98353.03;5042698;28;20359;-59
2022/12/19 06:01:23;;;;;;;20.60;11.57;;;2.30;99.90;;;5.58;54.12;98350.13;5043543;28;20042;-59
2022/12/19 06:03:51;;;;;;;22.00;11.13;;;2.40;99.90;;;5.65;54.84;98349.56;5042794;28;20043;-60
2022/12/19 06:06:23;;;;;;;22.43;11.67;;;2.40;99.90;;;5.69;54.50;98336.97;5043869;28;20355;-59
2022/12/19 06:08:58;;;;;;;21.33;11.67;;;2.40;99.90;;;5.71;54.67;98345.63;5042440;28;20048;-59
2022/12/19 06:11:26;;;;;;;21.57;11.03;;;2.40;99.90;;;5.76;53.72;98343.50;5041549;28;20053;-59
2022/12/19 06:13:54;;;;;;;25.37;11.40;;;2.50;99.90;;;5.81;54.22;98344.00;5043458;28;20087;-58
2022/12/19 06:16:22;;;;;;;23.57;12.03;;;2.50;99.90;;;5.86;53.90;98341.03;5042399;28;20055;-60
2022/12/19 06:18:50;;;;;;;19.03;10.60;;;2.50;99.90;;;5.91;53.82;98352.06;5043450;28;20229;-58
2022/12/19 06:21:21;;;;;;;25.23;12.50;;;2.50;99.90;;;5.94;53.76;98351.03;5042960;28;20045;-59
2022/12/19 06:23:49;;;;;;;26.20;14.07;;;2.50;99.90;;;5.96;54.26;98349.97;5043247;28;20259;-59
2022/12/19 06:26:19;;;;;;;38.17;17.57;;;2.50;99.90;;;6.00;53.54;98361.16;5043280;28;20056;-57
2022/12/19 06:28:49;;;;;;;42.90;19.27;;;2.50;99.90;;;6.02;53.55;98354.78;5041570;28;20259;-60
2022/12/19 06:31:19;;;;;;;64.47;23.47;;;2.60;99.90;;;6.06;54.04;98355.41;5042700;28;20051;-59
2022/12/19 06:33:47;;;;;;;71.27;27.60;;;2.60;99.90;;;6.08;54.06;98356.97;5042105;28;20049;-59
2022/12/19 06:36:20;;;;;;;56.57;21.57;;;2.60;99.90;;;6.11;54.07;98348.81;5042137;28;20038;-59
2022/12/19 06:38:50;;;;;;;74.05;31.67;;;2.70;99.90;;;6.13;53.64;98354.00;5043050;28;20045;-60
2022/12/19 06:44:07;;;;;;;26.03;13.83;;;2.70;99.90;;;6.17;53.97;98368.66;5035993;28;20340;-61
2022/12/19 06:46:36;;;;;;;24.37;14.67;;;2.70;99.90;;;6.20;53.93;98359.66;5042573;28;20049;-61
2022/12/19 06:49:04;;;;;;;28.20;14.67;;;2.70;99.90;;;6.22;53.96;98363.88;5041384;28;20060;-59
2022/12/19 06:51:33;;;;;;;24.53;12.43;;;2.70;99.90;;;6.26;54.24;98357.41;5041108;28;20351;-58
2022/12/19 06:54:00;;;;;;;19.80;11.03;;;2.70;99.90;;;6.28;53.12;98351.97;5041815;28;20046;-60
2022/12/19 06:56:35;;;;;;;17.67;9.77;;;2.80;99.90;;;6.28;54.06;98355.47;5042757;28;20263;-60
2022/12/19 06:59:03;;;;;;;;;;;2.80;99.90;;;6.25;53.55;98352.22;5042090;28;20232;-60
2022/12/19 07:01:51;;;;;;;16.77;9.50;;;2.80;99.90;;;6.33;53.72;98355.13;5040338;28;20200;-60
2022/12/19 07:04:43;;;;;;;19.17;9.60;;;2.80;99.90;;;6.26;53.51;98352.13;5036482;28;20049;-59
2022/12/19 07:07:11;;;;;;;17.87;10.50;;;2.90;99.90;;;6.33;53.82;98341.06;5035185;28;20052;-58
2022/12/19 07:09:39;;;;;;;20.63;10.20;;;2.90;99.90;;;6.35;53.87;98347.06;5041202;28;20041;-60
2022/12/19 07:12:07;;;;;;;20.97;9.17;;;2.90;99.90;;;6.40;53.47;98355.50;5041049;28;20047;-59
2022/12/19 07:14:35;;;;;;;16.20;9.77;;;3.00;99.90;;;6.42;54.05;98345.66;5041817;28;20173;-60
2022/12/19 07:17:05;;;;;;;22.17;10.37;;;3.00;99.90;;;6.42;53.65;98343.84;5041190;28;20037;-61
2022/12/19 07:19:34;;;;;;;20.17;9.63;;;3.00;99.90;;;6.42;53.61;98341.19;5041022;28;20049;-60
2022/12/19 07:22:03;;;;;;;19.23;9.43;;;3.00;99.90;;;6.44;53.77;98338.44;5040551;28;20033;-60
2022/12/19 07:24:34;;;;;;;18.23;9.70;;;3.00;99.90;;;6.47;53.62;98343.47;5042296;28;20049;-61
2022/12/19 07:27:02;;;;;;;20.60;10.90;;;3.10;99.90;;;6.51;53.68;98350.22;5033454;28;20068;-62
2022/12/19 07:29:30;;;;;;;17.43;8.43;;;3.10;99.90;;;6.57;53.80;98347.13;5041022;28;20055;-62
2022/12/19 07:31:58;;;;;;;17.60;9.17;;;3.20;99.90;;;6.62;53.39;98354.69;5040456;28;20047;-62
2022/12/19 07:34:26;;;;;;;15.17;9.53;;;3.30;99.90;;;6.66;53.39;98351.66;5041130;28;20045;-62
2022/12/19 07:36:53;;;;;;;13.47;8.43;;;3.30;99.90;;;6.72;53.43;98357.47;5040255;28;20049;-62
2022/12/19 07:39:21;;;;;;;16.13;8.53;;;3.30;99.90;;;6.72;53.40;98352.16;5041051;28;20045;-62
2022/12/19 07:41:49;;;;;;;17.73;10.77;;;3.40;99.90;;;6.73;53.77;98354.69;5041323;28;20056;-62
2022/12/19 07:44:29;;;;;;;17.70;10.43;;;3.40;99.90;;;6.75;53.27;98357.22;5041480;28;20046;-62
2022/12/19 07:46:57;;;;;;;19.03;9.27;;;3.40;99.90;;;6.76;53.33;98353.59;5024685;28;20049;-62
2022/12/19 07:49:25;;;;;;;13.90;7.93;;;3.50;99.90;;;6.74;53.58;98351.06;5040930;28;20033;-62
2022/12/19 07:51:53;;;;;;;15.57;8.77;;;3.40;99.90;;;6.76;53.82;98349.16;5040305;28;20052;-62
2022/12/19 07:54:20;;;;;;;16.60;9.33;;;3.50;99.90;;;6.79;53.28;98358.69;5040545;28;20045;-62
2022/12/19 07:56:48;;;;;;;17.93;9.63;;;3.50;99.90;;;6.84;53.42;98357.34;5041657;28;20053;-62
2022/12/19 07:59:16;;;;;;;16.40;9.07;;;3.60;99.90;;;6.87;53.17;98354.44;5040840;28;20372;-62
2022/12/19 08:01:44;;;;;;;15.07;8.37;;;3.60;99.90;;;6.94;52.92;98352.19;5040253;28;20052;-62
2022/12/19 08:04:12;;;;;;;14.17;7.97;;;3.70;99.90;;;6.96;53.18;98350.25;5040682;28;20243;-62
2022/12/19 08:06:40;;;;;;;15.33;8.33;;;3.70;99.90;;;7.00;53.31;98370.22;5040509;28;20072;-62
2022/12/19 08:09:08;;;;;;;15.20;8.17;;;3.70;99.90;;;7.03;52.76;98379.72;5036999;28;20229;-62
2022/12/19 08:11:36;;;;;;;20.10;10.33;;;3.70;99.90;;;7.07;52.93;98373.22;5041304;28;20049;-62
2022/12/19 08:14:04;;;;;;;19.10;10.70;;;3.80;99.90;;;7.13;53.55;98366.59;5041741;28;20053;-62
2022/12/19 08:16:32;;;;;;;16.83;9.70;;;3.90;99.90;;;7.20;52.95;98378.41;5040716;28;20058;-62
2022/12/19 08:19:20;;;;;;;16.37;9.83;;;3.90;99.90;;;7.25;52.71;98374.41;5036081;28;20049;-61
2022/12/19 08:21:54;;;;;;;18.30;10.00;;;4.00;99.90;;;7.32;52.44;98380.06;5040876;28;20049;-61
2022/12/19 08:24:21;;;;;;;18.37;9.80;;;4.00;99.90;;;7.37;52.81;98377.06;5040655;28;20049;-62
2022/12/19 08:26:49;;;;;;;14.70;8.00;;;4.10;99.90;;;7.44;52.63;98370.28;5041565;28;20042;-60
2022/12/19 08:29:17;;;;;;;12.67;7.20;;;4.20;99.90;;;7.49;52.58;98366.28;5045590;28;20047;-61
2022/12/19 08:31:44;;;;;;;13.30;7.80;;;4.20;99.90;;;7.56;52.21;98368.44;5045029;28;20051;-61
2022/12/19 08:34:12;;;;;;;13.87;7.53;;;4.30;99.90;;;7.62;52.29;98379.41;5045354;28;20355;-60
2022/12/19 08:36:40;;;;;;;12.43;7.37;;;4.30;99.90;;;7.69;52.31;98372.63;5045353;28;20045;-61
2022/12/19 08:39:08;;;;;;;12.73;7.03;;;4.40;99.90;;;7.72;52.44;98360.94;5045416;28;20045;-59
2022/12/19 08:41:36;;;;;;;13.40;8.23;;;4.40;99.90;;;7.79;52.17;98369.22;5043998;28;20048;-60
2022/12/19 08:44:04;;;;;;;13.47;6.47;;;4.50;99.90;;;7.83;52.01;98365.34;5036230;28;20041;-59
2022/12/19 08:46:32;;;;;;;8.63;6.13;;;4.60;99.90;;;7.87;52.07;98361.47;5043918;28;20251;-58
2022/12/19 08:49:00;;;;;;;14.37;6.83;;;4.60;99.90;;;7.91;52.32;98357.63;5045130;28;20029;-60
2022/12/19 08:51:28;;;;;;;10.57;6.43;;;4.60;99.90;;;7.94;52.27;98357.34;5044814;28;20049;-58
2022/12/19 08:53:57;;;;;;;12.30;6.77;;;4.70;99.90;;;7.96;51.82;98360.72;5045074;28;20053;-57
2022/12/19 08:56:26;;;;;;;10.50;6.47;;;4.70;99.90;;;8.00;51.73;98361.31;5043802;28;20049;-57
2022/12/19 08:58:55;;;;;;;10.83;6.60;;;4.70;99.70;;;8.03;51.86;98356.59;5044941;28;20057;-56
2022/12/19 09:01:27;;;;;;;13.03;7.20;;;4.80;99.20;;;8.08;51.84;98358.84;5044446;28;20041;-59
2022/12/19 09:03:58;;;;;;;12.77;6.10;;;4.80;99.10;;;8.12;51.69;98370.88;5043303;28;20052;-59
2022/12/19 09:06:46;;;;;;;12.43;6.97;;;4.80;98.30;;;8.15;51.65;98357.38;5044481;28;20330;-58
2022/12/19 09:09:14;;;;;;;10.27;6.50;;;4.90;98.70;;;8.21;51.34;98356.84;5044437;28;20049;-61
2022/12/19 09:11:42;;;;;;;11.40;7.10;;;4.90;98.10;;;8.23;51.32;98349.59;5043497;28;20045;-59
2022/12/19 09:14:14;;;;;;;14.20;7.63;;;5.00;98.20;;;8.31;51.37;98356.91;5044761;28;20052;-59
2022/12/19 09:16:48;;;;;;;10.95;7.55;;;5.00;98.10;;;8.38;51.02;98355.44;5044276;28;20064;-59
2022/12/19 09:19:16;;;;;;;11.50;6.37;;;5.10;97.60;;;8.39;51.35;98350.97;5044415;28;20053;-58
2022/12/19 09:21:44;;;;;;;13.80;8.07;;;5.10;97.40;;;8.39;51.25;98351.81;5043780;28;20037;-59
2022/12/19 09:24:12;;;;;;;14.83;8.97;;;5.10;97.50;;;8.39;51.14;98362.41;5044439;28;20050;-58
2022/12/19 09:26:41;;;;;;;13.70;8.83;;;5.10;97.30;;;8.38;51.14;98352.78;5044169;28;20050;-59
2022/12/19 09:29:09;;;;;;;15.43;8.73;;;5.10;97.30;;;8.36;51.25;98343.28;5035600;28;20046;-57
2022/12/19 09:31:49;;;;;;;15.03;9.63;;;5.10;97.20;;;8.33;51.40;98352.31;5043321;28;20381;-59
2022/12/19 09:34:26;;;;;;;17.60;9.27;;;5.10;97.10;;;8.36;51.23;98345.94;5044427;28;20053;-58
2022/12/19 09:37:10;;;;;;;13.57;8.07;;;5.10;96.60;;;8.36;51.37;98343.28;5028272;28;20060;-58
2022/12/19 09:39:48;;;;;;;14.67;8.80;;;5.10;96.80;;;8.37;51.02;98340.47;5044005;28;20041;-59
2022/12/19 09:42:53;;;;;;;15.97;9.10;;;5.10;96.40;;;8.35;51.15;98345.06;5042573;28;20046;-59
2022/12/19 09:46:17;;;;;;;15.80;8.17;;;5.10;96.40;;;8.34;50.92;98354.03;5036708;28;20251;-58
2022/12/19 09:48:47;;;;;;;19.40;9.97;;;5.00;96.00;;;8.39;50.70;98343.84;5044162;28;20229;-58
2022/12/19 09:51:49;;;;;;;23.67;11.27;;;5.00;96.80;;;8.38;51.24;98344.00;5027294;28;20252;-59
2022/12/19 09:54:25;;;;;;;62.57;25.00;;;5.00;95.70;;;8.42;51.01;98338.31;5026926;28;20276;-57
2022/12/19 09:57:00;;;;;;;60.13;23.63;;;5.00;96.70;;;8.44;50.71;98338.19;5038976;28;20041;-58
2022/12/19 09:59:35;;;;;;;71.53;28.70;;;5.00;96.30;;;8.50;50.70;98342.13;5041216;28;20067;-58
2022/12/19 10:02:43;;;;;;;47.00;22.63;;;5.10;96.40;;;8.53;50.95;98345.38;5035763;28;20083;-58
2022/12/19 10:05:52;;;;;;;64.77;26.83;;;5.20;95.10;;;8.54;50.97;98339.06;5035815;28;20044;-59
2022/12/19 10:08:43;;;;;;;21.50;12.17;;;5.20;94.90;;;8.57;50.51;98333.53;5039812;28;20049;-59
2022/12/19 10:12:04;;;;;;;17.23;10.97;;;5.20;95.20;;;8.54;50.91;98317.84;5036872;28;20067;-59
2022/12/19 10:15:41;;;;;;;14.17;8.30;;;5.20;94.60;;;8.56;50.77;98318.56;5041595;28;20042;-59
2022/12/19 10:18:29;;;;;;;13.73;9.37;;;5.20;94.40;;;8.59;50.68;98317.47;5042695;28;20071;-59
2022/12/19 10:21:28;;;;;;;17.33;9.93;;;5.30;94.10;;;8.58;50.66;98321.09;5041535;28;20071;-59
2022/12/19 10:24:53;;;;;;;16.37;8.60;;;5.40;93.60;;;8.63;50.75;98322.38;5035589;28;20058;-59
2022/12/19 10:28:00;;;;;;;16.73;8.50;;;5.40;92.20;;;8.70;50.76;98319.19;5038585;28;20045;-59
2022/12/19 10:30:35;;;;;;;14.60;7.50;;;5.50;93.10;;;8.76;50.51;98305.38;5036376;28;20045;-59
2022/12/19 10:33:33;;;;;;;12.70;7.63;;;5.50;92.30;;;8.79;50.44;98299.81;5041392;28;20056;-59
2022/12/19 10:36:07;;;;;;;15.73;8.80;;;5.50;90.90;;;8.83;50.19;98296.75;5041073;28;20067;-58
2022/12/19 10:39:05;;;;;;;12.87;7.97;;;5.60;91.90;;;8.82;49.98;98297.72;5042037;28;20045;-59
2022/12/19 10:41:34;;;;;;;13.50;7.77;;;5.50;91.50;;;8.90;50.09;98291.75;5039418;28;20060;-59
2022/12/19 10:44:12;;;;;;;12.23;7.30;;;5.50;91.80;;;8.93;49.83;98291.47;5033894;28;20048;-58
2022/12/19 10:46:48;;;;;;;11.83;7.40;;;5.60;91.90;;;8.96;50.11;98296.50;5041685;28;20037;-59
2022/12/19 10:49:26;;;;;;;12.17;7.37;;;5.60;91.70;;;8.99;50.02;98298.03;5034953;28;20041;-58
2022/12/19 10:52:07;;;;;;;12.17;7.73;;;5.60;91.60;;;8.99;49.97;98300.69;5041052;28;20232;-59
2022/12/19 10:54:38;;;;;;;13.43;8.13;;;5.60;91.00;;;8.99;50.00;98285.59;5043201;28;20041;-60
2022/12/19 10:57:21;;;;;;;12.13;7.47;;;5.60;91.60;;;9.01;50.04;98274.84;5042471;28;20057;-61